Beaver County Airport
KBVI : rendu visible

Aérodrome :











RETROUVEZ-NOUS SUR...

 
LOGIN :

S'inscrire | Disclaimer

   EN    FR    IT 

 









Légende :    VFR   VFR Marginal   IFR   IFR Intensif   IFR Très Intensif
Visi : 
Plafond : 
>= 8 km
>= 3000ft
5 à 8 km
1000 à 3000 ft
1500m à 5 km
500 à 1000 ft
800 à 1500m
200 à 500 ft
< 800m
< 200 ft
Symboles :   Orages  Brouillard  Fortes neiges  Fortes précipitations  Vent > 20 kt






- Altitude de l'aérodrome : 1253 ft


KBVI - Beaver County

DERNIER METAR :
  • 010755Z AUTO 28006KT 4SM +RA OVC003 00/00 A2954 RMK AO2 T00030000

METARs EXPIRÉS :
  • 010735Z AUTO 28006KT 3SM +RA OVC003 00/00 A2954 RMK AO2 T00040000
  • 010715Z AUTO 28006KT 5SM +RA OVC003 00/00 A2953 RMK AO2 T00040001
  • 010655Z AUTO 28007KT 7SM +RA OVC003 01/00 A2952 RMK AO2 T00050001
  • 010635Z AUTO 28008KT 5SM +RA OVC003 00/00 A2952 RMK AO2 T00040000
  • 010615Z AUTO 28007KT 5SM +RA OVC003 01/00 A2952 RMK AO2 T00050001
  • 010555Z AUTO 28006KT 4SM +RA OVC003 01/00 A2953 RMK AO2 T00050002
  • 010535Z AUTO 27008KT 5SM +RA OVC003 01/00 A2953 RMK AO2 T00050001
  • 010515Z AUTO 28007KT 7SM +RA OVC005 01/00 A2954 RMK AO2 T00070003

TAF KBVI
Valide du 01 à 06h jusqu'au 02 à 06h UTC


010528Z 0106/0206 28007KT P6SM -SN OVC006
FM011100 27012KT 1SM -SN OVC006
FM011700 25015G25KT 2SM -SN OVC010
FM020300 25012KT 3SM -SHSN OVC015
FIR KZOB / Amérique du Nord



MET'MAP, la Météo Aéronautique d'un coup d'oeil ! - Copyright ORBIFLY Décembre 2007 - Disclaimer

ORBIFLY MET'MAP TEAM :

Programmation & Développement : Alexandra Zaïnal
Sur une idée originale de : Baudouin d'Aumeries
Assistance à la programmation : Marc-Olivier Méhu
Soutien technique & logistique : Manuel Goepfert

Contact : metmap@orbifly.com




SOURCES & CREDITS :

   NOAA       Earth
Advisory